createdAt,value
2018-03-19T00:01:17.213Z,3.20
2018-03-19T00:03:44.716Z,3.10
2018-03-19T00:06:12.152Z,3.30
2018-03-19T00:08:39.585Z,3.30
2018-03-19T00:11:07.492Z,3.30
2018-03-19T00:13:34.960Z,3.30
2018-03-19T00:16:02.405Z,3.30
2018-03-19T00:18:29.839Z,3.20
2018-03-19T00:20:57.331Z,3.20
2018-03-19T00:23:25.196Z,3.20
2018-03-19T00:25:52.625Z,3.10
2018-03-19T00:28:20.818Z,3.10
2018-03-19T00:30:48.251Z,3.10
2018-03-19T00:33:15.727Z,3.10
2018-03-19T00:35:43.167Z,3.20
2018-03-19T00:38:10.748Z,3.20
2018-03-19T00:40:38.188Z,3.10
2018-03-19T00:43:05.630Z,3.10
2018-03-19T00:45:33.067Z,3.10
2018-03-19T00:48:01.290Z,3.20
2018-03-19T00:50:28.736Z,3.20
2018-03-19T00:52:56.179Z,3.20
2018-03-19T00:55:24.483Z,3.10
2018-03-19T00:57:51.956Z,3.10
2018-03-19T01:00:19.392Z,3.10
2018-03-19T01:02:46.839Z,3.10
2018-03-19T01:05:14.271Z,3.20
2018-03-19T01:07:41.766Z,3.10
2018-03-19T01:10:09.199Z,3.20
2018-03-19T01:12:36.677Z,3.20
2018-03-19T01:15:04.140Z,3.20
2018-03-19T01:17:31.600Z,3.20
2018-03-19T01:19:59.051Z,3.10
2018-03-19T01:22:26.492Z,3.20
2018-03-19T01:24:53.927Z,3.20
2018-03-19T01:27:21.422Z,3.10
2018-03-19T01:29:48.884Z,3.10
2018-03-19T01:32:16.473Z,3.10
2018-03-19T01:34:44.711Z,3.10
2018-03-19T01:37:12.156Z,3.10
2018-03-19T01:39:39.596Z,3.10
2018-03-19T01:42:07.041Z,3.00
2018-03-19T01:44:34.472Z,3.00
2018-03-19T01:47:02.696Z,3.10
2018-03-19T01:49:30.140Z,3.10
2018-03-19T01:51:57.631Z,3.00
2018-03-19T01:54:25.066Z,3.10
2018-03-19T01:56:52.535Z,3.00
2018-03-19T01:59:19.992Z,3.10
2018-03-19T02:01:47.433Z,3.10
2018-03-19T02:04:14.864Z,3.10
2018-03-19T02:06:43.080Z,3.00
2018-03-19T02:09:10.544Z,3.00
2018-03-19T02:11:37.972Z,3.00
2018-03-19T02:14:05.412Z,3.10
2018-03-19T02:16:33.622Z,3.00
2018-03-19T02:19:01.079Z,3.00
2018-03-19T02:21:28.524Z,3.10
2018-03-19T02:23:56.001Z,3.00
2018-03-19T02:26:23.451Z,3.10
2018-03-19T02:28:50.882Z,3.20
2018-03-19T02:31:18.369Z,3.10
2018-03-19T02:33:45.819Z,3.00
2018-03-19T02:36:14.100Z,3.00
2018-03-19T02:38:41.561Z,3.00
2018-03-19T02:41:09.001Z,3.00
2018-03-19T02:43:36.527Z,3.10
2018-03-19T02:46:03.915Z,3.00
2018-03-19T02:48:31.388Z,3.00
2018-03-19T02:50:58.836Z,3.00
2018-03-19T02:53:26.268Z,3.10
2018-03-19T02:55:53.737Z,3.00
2018-03-19T02:58:21.167Z,3.00
2018-03-19T03:00:49.388Z,3.00
2018-03-19T03:03:16.847Z,3.00
2018-03-19T03:05:44.289Z,3.10
2018-03-19T03:08:11.720Z,3.10
2018-03-19T03:10:39.147Z,3.10
2018-03-19T03:13:06.675Z,3.10
2018-03-19T03:15:34.131Z,3.00
2018-03-19T03:18:01.703Z,3.00
2018-03-19T03:20:29.135Z,3.00
2018-03-19T03:22:56.603Z,3.10
2018-03-19T03:25:24.060Z,3.20
2018-03-19T03:27:51.521Z,3.10
2018-03-19T03:30:19.704Z,3.00
2018-03-19T03:32:47.140Z,3.00
2018-03-19T03:35:14.602Z,3.00
2018-03-19T03:37:42.061Z,3.00
2018-03-19T03:40:09.645Z,3.10
2018-03-19T03:42:37.098Z,3.10
2018-03-19T03:45:04.540Z,3.00
2018-03-19T03:47:31.967Z,3.10
2018-03-19T03:49:59.416Z,3.00
2018-03-19T03:52:26.850Z,3.00
2018-03-19T03:54:55.100Z,3.10
2018-03-19T03:57:22.489Z,3.10
2018-03-19T03:59:50.686Z,2.90
2018-03-19T04:02:18.136Z,2.90
2018-03-19T04:04:45.576Z,2.90
2018-03-19T04:07:13.799Z,3.00
2018-03-19T04:09:41.251Z,2.90
2018-03-19T04:12:08.713Z,2.90
2018-03-19T04:14:36.152Z,2.80
2018-03-19T04:17:03.584Z,2.80
2018-03-19T04:19:31.079Z,2.90
2018-03-19T04:21:58.543Z,2.70
2018-03-19T04:24:25.999Z,2.80
2018-03-19T04:26:53.447Z,2.70
2018-03-19T04:29:20.916Z,2.70
2018-03-19T04:31:48.363Z,2.70
2018-03-19T04:34:15.796Z,2.80
2018-03-19T04:36:43.231Z,2.80
2018-03-19T04:39:11.587Z,2.80
2018-03-19T04:41:39.111Z,2.70
2018-03-19T04:44:06.578Z,2.60
2018-03-19T04:46:34.028Z,2.70
2018-03-19T04:49:01.489Z,2.70
2018-03-19T04:51:28.944Z,2.70
2018-03-19T04:53:56.381Z,2.70
2018-03-19T04:56:23.832Z,2.80
2018-03-19T04:58:51.264Z,2.80
2018-03-19T05:01:19.488Z,2.70
2018-03-19T05:03:47.047Z,2.70
2018-03-19T05:06:14.508Z,2.80
2018-03-19T05:08:41.939Z,2.80
2018-03-19T05:11:09.413Z,2.80
2018-03-19T05:13:36.884Z,2.70
2018-03-19T05:16:04.342Z,2.70
2018-03-19T05:18:31.892Z,2.80
2018-03-19T05:20:59.350Z,2.70
2018-03-19T05:23:26.788Z,2.70
2018-03-19T05:25:54.212Z,2.60
2018-03-19T05:28:22.415Z,2.80
2018-03-19T05:30:49.895Z,2.80
2018-03-19T05:33:17.350Z,2.70
2018-03-19T05:35:44.811Z,2.70
2018-03-19T05:38:12.265Z,2.80
2018-03-19T05:40:39.729Z,2.70
2018-03-19T05:43:07.294Z,2.80
2018-03-19T05:45:34.852Z,2.70
2018-03-19T05:48:02.289Z,2.70
2018-03-19T05:50:30.138Z,2.60
2018-03-19T05:52:57.576Z,2.70
2018-03-19T05:55:25.008Z,2.70
2018-03-19T05:57:52.539Z,2.70
2018-03-19T06:00:19.982Z,2.70
2018-03-19T06:02:47.444Z,2.60
2018-03-19T06:05:14.878Z,2.60
2018-03-19T06:07:42.567Z,2.70
2018-03-19T06:10:10.026Z,2.70
2018-03-19T06:12:37.889Z,2.70
2018-03-19T06:15:05.317Z,2.80
2018-03-19T06:17:32.839Z,2.70
2018-03-19T06:20:00.260Z,2.70
2018-03-19T06:22:27.723Z,2.70
2018-03-19T06:24:55.178Z,2.70
2018-03-19T06:27:22.585Z,2.80
2018-03-19T06:29:50.795Z,2.80
2018-03-19T06:32:18.231Z,2.80
2018-03-19T06:34:46.383Z,2.70
2018-03-19T06:37:14.580Z,2.80
2018-03-19T06:39:42.022Z,2.80
2018-03-19T06:42:10.220Z,2.70
2018-03-19T06:44:37.711Z,2.70
2018-03-19T06:47:05.154Z,2.70
2018-03-19T06:49:32.612Z,2.70
2018-03-19T06:52:00.058Z,2.80
2018-03-19T06:54:27.500Z,2.80
2018-03-19T06:56:54.940Z,2.80
2018-03-19T06:59:23.129Z,2.80
2018-03-19T07:01:50.563Z,2.80
2018-03-19T07:04:18.767Z,2.70
2018-03-19T07:06:46.191Z,2.70
2018-03-19T07:09:14.399Z,2.70
2018-03-19T07:11:41.876Z,2.70
2018-03-19T07:14:09.305Z,2.70
2018-03-19T07:16:36.748Z,2.70
2018-03-19T07:19:04.248Z,2.70
2018-03-19T07:21:31.695Z,2.80
2018-03-19T07:23:59.134Z,2.80
2018-03-19T07:26:26.572Z,2.90
2018-03-19T07:28:54.073Z,2.90
2018-03-19T07:31:21.503Z,3.00
2018-03-19T07:33:48.955Z,2.90
2018-03-19T07:36:16.451Z,2.90
2018-03-19T07:38:43.883Z,2.70
2018-03-19T07:41:11.312Z,2.80
2018-03-19T07:43:38.752Z,2.90
2018-03-19T07:46:06.957Z,2.90
2018-03-19T07:48:34.471Z,2.90
2018-03-19T07:51:01.905Z,2.90
2018-03-19T07:53:29.307Z,2.90
2018-03-19T07:55:57.513Z,3.00
2018-03-19T07:58:24.986Z,3.00
2018-03-19T08:00:52.440Z,3.00
2018-03-19T08:03:19.908Z,2.90
2018-03-19T08:05:47.374Z,2.90
2018-03-19T08:08:14.766Z,2.80
2018-03-19T08:10:42.976Z,2.90
2018-03-19T08:13:10.448Z,2.90
2018-03-19T08:15:37.917Z,2.90
2018-03-19T08:18:05.360Z,2.90
2018-03-19T08:20:32.935Z,2.90
2018-03-19T08:23:01.170Z,3.00
2018-03-19T08:25:28.600Z,3.10
2018-03-19T08:27:56.803Z,3.10
2018-03-19T08:30:24.279Z,3.10
2018-03-19T08:32:51.725Z,3.00
2018-03-19T08:35:19.204Z,3.00
2018-03-19T08:37:46.760Z,3.00
2018-03-19T08:40:14.629Z,3.00
2018-03-19T08:42:42.075Z,3.00
2018-03-19T08:45:09.511Z,3.00
2018-03-19T08:47:36.966Z,3.00
2018-03-19T08:50:04.452Z,3.10
2018-03-19T08:52:31.887Z,3.20
2018-03-19T08:54:59.323Z,3.30
2018-03-19T08:57:26.820Z,3.30
2018-03-19T08:59:54.268Z,3.30
2018-03-19T09:02:21.698Z,3.30
2018-03-19T09:04:49.805Z,3.40
2018-03-19T09:07:17.302Z,3.40
2018-03-19T09:09:44.716Z,3.40
2018-03-19T09:12:12.162Z,3.40
2018-03-19T09:14:39.601Z,3.40
2018-03-19T09:17:07.092Z,3.40
2018-03-19T09:19:34.812Z,3.40
2018-03-19T09:22:02.252Z,3.50
2018-03-19T09:24:30.495Z,3.70
2018-03-19T09:26:57.947Z,3.70
2018-03-19T09:29:25.377Z,3.70
2018-03-19T09:31:52.816Z,3.70
2018-03-19T09:34:20.261Z,3.70
2018-03-19T09:36:48.468Z,3.80
2018-03-19T09:39:16.145Z,3.70
2018-03-19T09:41:43.581Z,3.80
2018-03-19T09:44:11.060Z,3.80
2018-03-19T09:46:38.500Z,3.80
2018-03-19T09:49:06.164Z,3.90
2018-03-19T09:51:34.352Z,3.90
2018-03-19T09:54:01.811Z,3.90
2018-03-19T09:56:29.264Z,3.80
2018-03-19T09:58:56.700Z,3.90
2018-03-19T10:01:24.148Z,3.90
2018-03-19T10:03:51.579Z,3.90
2018-03-19T10:06:19.808Z,3.70
2018-03-19T10:08:47.459Z,3.80
2018-03-19T10:11:14.896Z,3.80
2018-03-19T10:13:42.320Z,3.80
2018-03-19T10:16:09.844Z,4.00
2018-03-19T10:18:37.277Z,4.00
2018-03-19T10:21:04.708Z,4.00
2018-03-19T10:23:32.926Z,4.10
2018-03-19T10:26:00.352Z,4.10
2018-03-19T10:28:27.788Z,4.10
2018-03-19T10:30:55.993Z,4.10
2018-03-19T10:33:23.486Z,4.10
2018-03-19T10:35:50.911Z,4.20
2018-03-19T10:38:18.348Z,4.40
2018-03-19T10:40:45.848Z,4.40
2018-03-19T10:43:13.284Z,4.30
2018-03-19T10:45:40.758Z,4.20
2018-03-19T10:48:08.221Z,4.30
2018-03-19T10:50:35.652Z,4.40
2018-03-19T10:53:03.083Z,4.40
2018-03-19T10:55:31.722Z,4.40
2018-03-19T10:57:59.272Z,4.40
2018-03-19T11:00:26.728Z,4.40
2018-03-19T11:02:54.160Z,4.40
2018-03-19T11:05:27.392Z,4.40
2018-03-19T11:08:00.608Z,4.40
2018-03-19T11:10:28.844Z,4.40
2018-03-19T11:12:56.284Z,4.40
2018-03-19T11:15:23.728Z,4.40
2018-03-19T11:17:51.216Z,4.40
2018-03-19T11:20:18.651Z,4.50
2018-03-19T11:22:46.087Z,4.50
2018-03-19T11:25:14.308Z,4.60
2018-03-19T11:27:41.740Z,4.60
2018-03-19T11:30:09.173Z,4.80
2018-03-19T11:32:36.676Z,4.70
2018-03-19T11:35:04.128Z,4.70
2018-03-19T11:37:31.565Z,4.70
2018-03-19T11:39:59.008Z,4.70
2018-03-19T11:42:26.436Z,4.80
2018-03-19T11:44:53.957Z,5.00
2018-03-19T11:47:21.452Z,5.10
2018-03-19T11:49:48.872Z,5.00
2018-03-19T11:52:16.295Z,5.00
2018-03-19T11:54:43.788Z,5.00
2018-03-19T11:57:11.232Z,5.20
2018-03-19T11:59:38.659Z,5.30
2018-03-19T12:02:06.160Z,5.30
2018-03-19T12:04:33.587Z,5.20
2018-03-19T12:07:01.020Z,5.30
2018-03-19T12:09:29.224Z,5.30
2018-03-19T12:11:56.647Z,5.30
2018-03-19T12:14:24.890Z,5.30
2018-03-19T12:16:52.332Z,5.20
2018-03-19T12:19:19.801Z,5.20
2018-03-19T12:21:47.244Z,5.30
2018-03-19T12:24:14.704Z,5.40
2018-03-19T12:26:42.144Z,5.50
2018-03-19T12:29:09.823Z,5.70
2018-03-19T12:31:37.255Z,5.90
2018-03-19T12:34:04.683Z,6.00
2018-03-19T12:36:32.886Z,6.00
2018-03-19T12:39:00.316Z,6.00
2018-03-19T12:41:28.540Z,6.00
2018-03-19T12:43:55.968Z,5.90
2018-03-19T12:46:23.464Z,6.00
2018-03-19T12:48:50.892Z,6.10
2018-03-19T12:51:18.332Z,6.20
2018-03-19T12:53:45.760Z,6.30
2018-03-19T12:56:13.955Z,6.50
2018-03-19T12:58:41.400Z,6.50
2018-03-19T13:01:09.633Z,6.60
2018-03-19T13:03:37.085Z,6.60
2018-03-19T13:06:04.541Z,6.70
2018-03-19T13:08:31.995Z,6.70
2018-03-19T13:10:59.456Z,6.80
2018-03-19T13:13:26.911Z,6.80
2018-03-19T13:15:54.351Z,6.90
2018-03-19T13:18:21.828Z,6.90
2018-03-19T13:20:49.283Z,6.90
2018-03-19T13:23:16.740Z,7.00
2018-03-19T13:25:44.175Z,7.00
2018-03-19T13:28:11.651Z,7.00
2018-03-19T13:30:39.095Z,7.10
2018-03-19T13:33:06.553Z,7.10
2018-03-19T13:35:33.972Z,7.20
2018-03-19T13:38:02.172Z,7.30
2018-03-19T13:40:29.657Z,7.20
2018-03-19T13:42:57.089Z,7.30
2018-03-19T13:45:24.524Z,7.20
2018-03-19T13:47:52.028Z,7.10
2018-03-19T13:50:19.463Z,7.20
2018-03-19T13:52:46.939Z,7.10
2018-03-19T13:55:14.372Z,7.10
2018-03-19T13:57:41.816Z,7.10
2018-03-19T14:00:09.343Z,7.10
2018-03-19T14:02:36.867Z,7.10
2018-03-19T14:05:04.333Z,7.10
2018-03-19T14:07:31.788Z,7.10
2018-03-19T14:09:59.443Z,7.10
2018-03-19T14:12:26.899Z,7.00
2018-03-19T14:14:54.443Z,6.90
2018-03-19T14:17:21.920Z,6.90
2018-03-19T14:19:49.355Z,6.90
2018-03-19T14:22:16.796Z,6.90
2018-03-19T14:24:44.227Z,6.80
2018-03-19T14:27:11.769Z,6.80
2018-03-19T14:29:39.204Z,6.80
2018-03-19T14:32:06.696Z,6.70
2018-03-19T14:34:34.320Z,6.70
2018-03-19T14:37:01.897Z,6.70
2018-03-19T14:39:29.385Z,6.70
2018-03-19T14:41:56.775Z,6.70
2018-03-19T14:44:24.262Z,6.60
2018-03-19T14:46:51.708Z,6.60
2018-03-19T14:49:19.168Z,6.50
2018-03-19T14:51:46.621Z,6.60
2018-03-19T14:54:14.068Z,6.60
2018-03-19T14:56:41.620Z,6.60
2018-03-19T14:59:09.091Z,6.50
2018-03-19T15:01:36.652Z,6.50
2018-03-19T15:04:04.080Z,6.40
2018-03-19T15:06:31.509Z,6.40
2018-03-19T15:08:59.712Z,6.40
2018-03-19T15:11:27.199Z,6.40
2018-03-19T15:13:54.663Z,6.40
2018-03-19T15:16:22.089Z,6.40
2018-03-19T15:18:49.567Z,6.40
2018-03-19T15:21:17.023Z,6.40
2018-03-19T15:23:44.486Z,6.30
2018-03-19T15:26:11.917Z,6.30
2018-03-19T15:28:39.395Z,6.30
2018-03-19T15:31:06.835Z,6.30
2018-03-19T15:33:34.309Z,6.30
2018-03-19T15:36:01.740Z,6.40
2018-03-19T15:38:29.224Z,6.30
2018-03-19T15:40:56.692Z,6.20
2018-03-19T15:43:24.152Z,6.20
2018-03-19T15:45:51.664Z,6.30
2018-03-19T15:48:19.152Z,6.30
2018-03-19T15:50:46.612Z,6.30
2018-03-19T15:53:14.179Z,6.20
2018-03-19T15:55:41.613Z,6.20
2018-03-19T15:58:09.068Z,6.20
2018-03-19T16:00:36.549Z,6.10
2018-03-19T16:03:03.999Z,6.10
2018-03-19T16:05:31.458Z,6.10
2018-03-19T16:07:58.889Z,6.10
2018-03-19T16:10:26.376Z,6.10
2018-03-19T16:12:53.824Z,6.00
2018-03-19T16:15:21.260Z,6.00
2018-03-19T16:17:48.740Z,6.00
2018-03-19T16:20:16.196Z,5.90
2018-03-19T16:22:43.636Z,5.90
2018-03-19T16:25:11.080Z,5.90
2018-03-19T16:27:38.523Z,5.90
2018-03-19T16:30:05.958Z,5.90
2018-03-19T16:32:33.395Z,5.90
2018-03-19T16:35:00.936Z,5.80
2018-03-19T16:37:28.368Z,5.80
2018-03-19T16:39:55.851Z,5.70
2018-03-19T16:42:23.366Z,5.70
2018-03-19T16:44:50.768Z,5.60
2018-03-19T16:47:18.228Z,5.70
2018-03-19T16:49:46.159Z,5.70
2018-03-19T16:52:13.596Z,5.70
2018-03-19T16:54:41.798Z,5.60
2018-03-19T16:57:10.096Z,5.60
2018-03-19T16:59:38.172Z,5.50
2018-03-19T17:02:05.604Z,5.50
2018-03-19T17:04:33.083Z,5.50
2018-03-19T17:07:01.071Z,5.40
2018-03-19T17:09:28.620Z,5.40
2018-03-19T17:11:56.047Z,5.40
2018-03-19T17:14:23.472Z,5.30
2018-03-19T17:16:51.680Z,5.30
2018-03-19T17:19:19.116Z,5.30
2018-03-19T17:21:46.616Z,5.20
2018-03-19T17:24:14.042Z,5.20
2018-03-19T17:26:41.700Z,5.20
2018-03-19T17:29:09.135Z,5.20
2018-03-19T17:31:37.364Z,5.10
2018-03-19T17:34:04.807Z,5.10
2018-03-19T17:36:32.232Z,5.00
2018-03-19T17:38:59.748Z,5.00
2018-03-19T17:41:27.195Z,5.00
2018-03-19T17:43:54.654Z,5.00
2018-03-19T17:46:22.092Z,4.90
2018-03-19T17:48:49.528Z,5.00
2018-03-19T17:51:17.483Z,4.90
2018-03-19T17:53:45.683Z,4.90
2018-03-19T17:56:13.112Z,4.80
2018-03-19T17:58:41.371Z,4.90
2018-03-19T18:01:08.768Z,4.90
2018-03-19T18:03:36.247Z,4.80
2018-03-19T18:06:03.716Z,4.90
2018-03-19T18:08:31.268Z,4.80
2018-03-19T18:10:59.055Z,4.70
2018-03-19T18:13:26.488Z,4.70
2018-03-19T18:15:53.932Z,4.70
2018-03-19T18:18:21.360Z,4.70
2018-03-19T18:20:48.860Z,4.60
2018-03-19T18:23:16.310Z,4.60
2018-03-19T18:25:43.736Z,4.60
2018-03-19T18:28:11.209Z,4.60
2018-03-19T18:30:38.633Z,4.60
2018-03-19T18:33:06.856Z,4.60
2018-03-19T18:35:34.290Z,4.60
2018-03-19T18:38:01.753Z,4.50
2018-03-19T18:40:29.210Z,4.50
2018-03-19T18:42:57.118Z,4.50
2018-03-19T18:45:24.584Z,4.50
2018-03-19T18:47:52.016Z,4.40
2018-03-19T18:50:19.459Z,4.40
2018-03-19T18:52:46.897Z,4.50
2018-03-19T18:55:14.388Z,4.40
2018-03-19T18:57:41.855Z,4.30
2018-03-19T19:00:09.320Z,4.40
2018-03-19T19:02:36.804Z,4.40
2018-03-19T19:05:05.008Z,4.40
2018-03-19T19:07:32.461Z,4.40
2018-03-19T19:09:59.895Z,4.50
2018-03-19T19:12:27.340Z,4.40
2018-03-19T19:14:55.578Z,4.30
2018-03-19T19:17:23.107Z,4.20
2018-03-19T19:19:50.584Z,4.30
2018-03-19T19:22:18.036Z,4.30
2018-03-19T19:24:45.463Z,4.40
2018-03-19T19:27:12.928Z,4.30
2018-03-19T19:29:40.420Z,4.30
2018-03-19T19:32:07.908Z,4.30
2018-03-19T19:34:35.359Z,4.30
2018-03-19T19:37:02.811Z,4.30
2018-03-19T19:39:30.285Z,4.30
2018-03-19T19:41:57.764Z,4.40
2018-03-19T19:44:25.977Z,4.30
2018-03-19T19:46:53.411Z,4.30
2018-03-19T19:49:20.862Z,4.20
2018-03-19T19:51:48.299Z,4.20
2018-03-19T19:54:16.550Z,4.20
2018-03-19T19:56:44.068Z,4.20
2018-03-19T19:59:11.499Z,4.20
2018-03-19T20:01:38.952Z,4.20
2018-03-19T20:04:06.430Z,4.20
2018-03-19T20:06:33.884Z,4.10
2018-03-19T20:09:01.318Z,4.10
2018-03-19T20:11:29.531Z,4.00
2018-03-19T20:13:56.970Z,4.00
2018-03-19T20:16:24.462Z,4.10
2018-03-19T20:18:51.912Z,4.10
2018-03-19T20:21:19.347Z,4.10
2018-03-19T20:23:46.787Z,4.00
2018-03-19T20:26:14.232Z,4.00
2018-03-19T20:28:42.443Z,4.00
2018-03-19T20:31:09.896Z,4.00
2018-03-19T20:33:37.338Z,4.00
2018-03-19T20:36:04.784Z,4.10
2018-03-19T20:38:32.990Z,4.10
2018-03-19T20:41:00.454Z,4.10
2018-03-19T20:43:27.891Z,4.00
2018-03-19T20:45:55.365Z,4.00
2018-03-19T20:48:22.800Z,4.00
2018-03-19T20:50:50.233Z,4.00
2018-03-19T20:53:18.504Z,3.90
2018-03-19T20:55:46.708Z,3.80
2018-03-19T20:58:14.174Z,3.80
2018-03-19T21:00:41.600Z,3.90
2018-03-19T21:03:09.036Z,3.90
2018-03-19T21:05:37.240Z,3.80
2018-03-19T21:08:04.694Z,3.80
2018-03-19T21:10:32.896Z,3.90
2018-03-19T21:13:00.419Z,3.90
2018-03-19T21:15:28.603Z,3.90
2018-03-19T21:17:56.043Z,3.80
2018-03-19T21:20:24.247Z,3.80
2018-03-19T21:22:51.783Z,3.80
2018-03-19T21:25:19.188Z,3.80
2018-03-19T21:27:47.486Z,3.90
2018-03-19T21:30:16.469Z,3.90
2018-03-19T21:32:43.959Z,3.80
2018-03-19T21:35:12.107Z,3.90
2018-03-19T21:37:39.561Z,3.80
2018-03-19T21:40:07.129Z,3.80
2018-03-19T21:42:34.673Z,3.80
2018-03-19T21:45:02.219Z,3.80
2018-03-19T21:47:29.672Z,3.80
2018-03-19T21:49:57.112Z,3.70
2018-03-19T21:52:25.336Z,3.70
2018-03-19T21:54:52.836Z,3.80
2018-03-19T21:57:20.272Z,3.80
2018-03-19T21:59:48.498Z,3.80
2018-03-19T22:02:15.947Z,3.70
2018-03-19T22:04:43.408Z,3.80
2018-03-19T22:07:10.884Z,3.80
2018-03-19T22:09:38.323Z,3.70
2018-03-19T22:12:05.764Z,3.60
2018-03-19T22:14:33.195Z,3.60
2018-03-19T22:17:00.697Z,3.60
2018-03-19T22:19:28.146Z,3.60
2018-03-19T22:21:55.581Z,3.60
2018-03-19T22:24:23.058Z,3.40
2018-03-19T22:26:50.494Z,3.60
2018-03-19T22:29:17.944Z,3.40
2018-03-19T22:31:45.435Z,3.40
2018-03-19T22:34:12.928Z,3.40
2018-03-19T22:36:40.351Z,3.40
2018-03-19T22:39:07.804Z,3.40
2018-03-19T22:41:35.236Z,3.50
2018-03-19T22:44:02.700Z,3.50
2018-03-19T22:46:30.136Z,3.60
2018-03-19T22:48:57.575Z,3.50
2018-03-19T22:51:25.788Z,3.40
2018-03-19T22:53:53.266Z,3.40
2018-03-19T22:56:20.719Z,3.40
2018-03-19T22:58:48.176Z,3.40
2018-03-19T23:01:15.624Z,3.40
2018-03-19T23:03:43.052Z,3.40
2018-03-19T23:06:10.556Z,3.40
2018-03-19T23:08:37.985Z,3.50
2018-03-19T23:11:05.415Z,3.50
2018-03-19T23:13:32.872Z,3.50
2018-03-19T23:16:00.377Z,3.50
2018-03-19T23:18:28.662Z,3.50
2018-03-19T23:20:56.216Z,3.50
2018-03-19T23:23:23.680Z,3.50
2018-03-19T23:25:51.111Z,3.50
2018-03-19T23:28:18.583Z,3.50
2018-03-19T23:30:46.024Z,3.40
2018-03-19T23:33:13.495Z,3.30
2018-03-19T23:35:40.952Z,3.30
2018-03-19T23:38:08.384Z,3.30
2018-03-19T23:40:35.829Z,3.30
2018-03-19T23:43:04.143Z,3.30
2018-03-19T23:45:31.592Z,3.20
2018-03-19T23:47:59.063Z,3.20
2018-03-19T23:50:26.500Z,3.20
2018-03-19T23:52:53.968Z,3.10
2018-03-19T23:55:21.403Z,3.20
2018-03-19T23:57:48.879Z,3.10
